Main page
METAR-TAF:

METAR-TAF

Airports :

Killarney, Ireland

Kerry Airport

latitude: 52-10-51N, longitude: 9-31-26W, elevation: 34 m

Current weather observation

The report was made 25 minutes ago, at 18:30 UTC
Wind 12 kt from the Southeast
Temperature 13°C
Humidity 54%
Pressure 1019 hPa
Visibility 10 km or more
no clouds below 1500 m and no cumulonimbus

METAR: EIKY 261830Z 13012KT CAVOK 13/04 Q1019

Time: 19:55 (18:55 UTC)

Forecast

The report was made 1 hour and 55 minutes ago, at 17:00 UTC
Forecast valid from 26 at 18 UTC to 26 at 21 UTC
Wind 15 kt from the East
Visibility 10 km or more
no clouds below 1500 m and no cumulonimbus
Becoming
from 26 at 18 UTC to 26 at 21 UTC
Wind 10 kt from the East

TAF: EIKY 261700Z 2618/2621 10015KT CAVOK BECMG 2618/2621 10010KT

Weather observations and forecasts of more than 4000 airports (METAR and TAF reports).

The available stations are represented by yellow and red dots on the map.

Hover mouse over dot to see the name of the station.

Then click to see weather observations and forecasts.

To change the map : click on the green buttons with a black cross to zoom in, on the green button with a dash to zoom out, or on the green arrows for adjacent maps.


METAR-TAF: